createdAt,value
2022-08-09T00:00:46.277Z,3.58
2022-08-09T00:06:17.655Z,3.80
2022-08-09T00:11:06.041Z,3.92
2022-08-09T00:16:26.138Z,3.70
2022-08-09T00:21:34.860Z,3.67
2022-08-09T00:26:34.593Z,4.30
2022-08-09T00:31:59.865Z,4.35
2022-08-09T00:36:52.025Z,4.30
2022-08-09T00:44:14.247Z,3.95
2022-08-09T00:47:10.359Z,4.13
2022-08-09T00:52:17.353Z,4.25
2022-08-09T00:57:24.771Z,4.13
2022-08-09T01:02:32.650Z,4.15
2022-08-09T01:07:38.170Z,4.00
2022-08-09T01:12:56.929Z,4.35
2022-08-09T01:17:57.857Z,4.28
2022-08-09T01:23:04.762Z,4.15
2022-08-09T01:28:26.102Z,4.22
2022-08-09T01:33:26.844Z,4.78
2022-08-09T01:38:27.289Z,4.70
2022-08-09T01:43:26.897Z,4.32
2022-08-09T01:48:31.556Z,4.30
2022-08-09T01:53:41.211Z,4.85
2022-08-09T01:58:43.819Z,4.25
2022-08-09T02:03:48.331Z,5.03
2022-08-09T02:08:58.706Z,4.65
2022-08-09T02:14:06.896Z,4.82
2022-08-09T02:19:06.444Z,5.03
2022-08-09T02:24:07.218Z,4.82
2022-08-09T02:29:14.729Z,4.65
2022-08-09T02:34:40.961Z,4.43
2022-08-09T02:39:42.094Z,5.15
2022-08-09T02:44:43.868Z,4.75
2022-08-09T02:49:47.141Z,4.63
2022-08-09T02:54:57.295Z,5.13
2022-08-09T03:00:25.466Z,4.57
2022-08-09T03:05:16.801Z,4.47
2022-08-09T03:10:16.416Z,5.20
2022-08-09T03:15:16.783Z,5.28
2022-08-09T03:20:15.407Z,5.65
2022-08-09T03:25:26.124Z,5.88
2022-08-09T03:30:36.772Z,5.30
2022-08-09T03:36:11.384Z,4.95
2022-08-09T03:40:54.181Z,4.95
2022-08-09T03:46:13.669Z,5.70
2022-08-09T03:51:43.947Z,5.45
2022-08-09T03:56:31.569Z,5.43
2022-08-09T04:01:31.629Z,5.30
2022-08-09T04:06:31.012Z,5.93
2022-08-09T04:11:30.514Z,4.90
2022-08-09T04:16:32.744Z,5.38
2022-08-09T04:21:31.125Z,5.32
2022-08-09T04:26:38.153Z,5.57
2022-08-09T04:31:47.448Z,6.05
2022-08-09T04:36:50.267Z,5.95
2022-08-09T04:41:48.888Z,6.32
2022-08-09T04:46:58.136Z,5.75
2022-08-09T04:51:58.694Z,5.55
2022-08-09T04:56:57.068Z,5.07
2022-08-09T05:01:57.277Z,5.97
2022-08-09T05:06:55.956Z,6.30
2022-08-09T05:11:56.292Z,5.78
2022-08-09T05:16:59.762Z,6.05
2022-08-09T05:21:59.679Z,6.22
2022-08-09T05:26:58.703Z,6.63
2022-08-09T05:32:00.381Z,5.47
2022-08-09T05:37:01.754Z,5.80
2022-08-09T05:42:04.707Z,5.80
2022-08-09T05:47:05.546Z,5.50
2022-08-09T05:52:05.802Z,5.00
2022-08-09T05:57:04.522Z,5.15
2022-08-09T06:02:04.815Z,5.50
2022-08-09T06:07:03.767Z,5.90
2022-08-09T06:12:03.477Z,5.68
2022-08-09T06:17:09.174Z,7.10
2022-08-09T06:22:15.238Z,5.63
2022-08-09T06:27:15.631Z,5.50
2022-08-09T06:32:53.291Z,5.05
2022-08-09T06:37:32.515Z,6.63
2022-08-09T06:42:52.401Z,5.30
2022-08-09T06:47:57.881Z,6.13
2022-08-09T06:53:00.910Z,5.57
2022-08-09T06:58:02.735Z,5.32
2022-08-09T07:03:06.061Z,6.00
2022-08-09T07:08:04.645Z,6.07
2022-08-09T07:13:05.381Z,5.80
2022-08-09T07:18:22.580Z,7.85
2022-08-09T07:23:20.929Z,5.53
2022-08-09T07:28:26.380Z,5.40
2022-08-09T07:33:26.564Z,5.35
2022-08-09T07:38:31.020Z,6.47
2022-08-09T07:43:30.796Z,6.63
2022-08-09T07:48:39.527Z,6.00
2022-08-09T07:54:04.936Z,7.63
2022-08-09T07:58:59.643Z,9.48
2022-08-09T08:03:58.127Z,5.43
2022-08-09T08:09:03.614Z,5.50
2022-08-09T08:14:06.241Z,4.85
2022-08-09T08:19:04.880Z,4.40
2022-08-09T08:24:12.159Z,5.25
2022-08-09T08:29:20.305Z,4.68
2022-08-09T08:34:25.818Z,4.32
2022-08-09T08:39:24.086Z,4.63
2022-08-09T08:44:28.913Z,4.90
2022-08-09T08:49:29.686Z,4.63
2022-08-09T08:54:36.620Z,5.47
2022-08-09T08:59:46.850Z,4.45
2022-08-09T09:04:53.043Z,5.20
2022-08-09T09:10:02.054Z,4.93
2022-08-09T09:15:06.610Z,4.38
2022-08-09T09:20:07.884Z,4.40
2022-08-09T09:26:02.034Z,4.43
2022-08-09T09:30:40.571Z,3.97
2022-08-09T09:36:00.702Z,4.30
2022-08-09T09:41:01.174Z,4.28
2022-08-09T09:51:38.210Z,3.63
2022-08-09T09:56:53.265Z,4.05
2022-08-09T10:02:01.735Z,3.63
2022-08-09T10:07:03.454Z,4.53
2022-08-09T10:12:14.762Z,3.03
2022-08-09T10:17:50.307Z,3.92
2022-08-09T10:22:57.274Z,3.63
2022-08-09T10:27:58.847Z,3.65
2022-08-09T10:32:59.460Z,4.25
2022-08-09T10:37:58.436Z,3.03
2022-08-09T10:42:57.150Z,3.70
2022-08-09T10:48:13.179Z,3.92
2022-08-09T10:53:37.972Z,3.63
2022-08-09T10:58:37.724Z,3.60
2022-08-09T11:03:49.757Z,3.40
2022-08-09T11:08:53.009Z,3.80
2022-08-09T11:14:07.094Z,3.53
2022-08-09T11:19:10.232Z,2.90
2022-08-09T11:24:10.594Z,3.40
2022-08-09T11:29:09.609Z,4.47
2022-08-09T11:34:11.119Z,3.65
2022-08-09T11:39:11.099Z,2.97
2022-08-09T11:44:09.747Z,3.00
2022-08-09T11:49:09.339Z,2.80
2022-08-09T11:54:27.539Z,3.33
2022-08-09T11:59:30.594Z,3.17
2022-08-09T12:04:37.399Z,2.97
2022-08-09T12:09:36.577Z,2.88
2022-08-09T12:14:40.685Z,2.67
2022-08-09T12:19:59.722Z,3.30
2022-08-09T12:25:11.713Z,2.97
2022-08-09T12:30:36.461Z,2.63
2022-08-09T12:35:40.013Z,2.40
2022-08-09T12:40:44.826Z,2.35
2022-08-09T12:45:59.587Z,2.72
2022-08-09T12:51:00.506Z,2.35
2022-08-09T12:56:14.702Z,2.40
2022-08-09T13:01:28.139Z,2.90
2022-08-09T13:06:34.909Z,2.60
2022-08-09T13:11:34.552Z,2.80
2022-08-09T13:16:42.047Z,3.28
2022-08-09T13:22:37.824Z,3.53
2022-08-09T13:27:04.673Z,2.90
2022-08-09T13:32:17.630Z,3.20
2022-08-09T13:37:51.211Z,2.60
2022-08-09T13:42:39.239Z,2.78
2022-08-09T13:47:49.469Z,2.72
2022-08-09T13:52:51.471Z,3.03
2022-08-09T13:57:56.156Z,2.90
2022-08-09T14:03:04.649Z,2.50
2022-08-09T14:08:17.594Z,3.00
2022-08-09T14:13:21.686Z,3.58
2022-08-09T14:18:34.194Z,3.20
2022-08-09T14:23:40.574Z,2.40
2022-08-09T14:28:52.550Z,2.65
2022-08-09T14:33:54.482Z,3.22
2022-08-09T14:38:54.360Z,2.78
2022-08-09T14:43:53.312Z,2.60
2022-08-09T14:48:52.060Z,2.53
2022-08-09T14:53:52.579Z,2.20
2022-08-09T14:58:56.355Z,2.40
2022-08-09T15:03:56.363Z,2.53
2022-08-09T15:08:56.630Z,3.90
2022-08-09T15:14:04.690Z,2.55
2022-08-09T15:19:17.948Z,2.60
2022-08-09T15:24:23.358Z,2.80
2022-08-09T15:30:48.517Z,3.25
2022-08-09T15:34:45.012Z,2.10
2022-08-09T15:39:53.377Z,3.33
2022-08-09T15:44:58.286Z,3.08
2022-08-09T15:50:03.876Z,3.33
2022-08-09T15:55:03.462Z,2.50
2022-08-09T16:00:03.122Z,2.70
2022-08-09T16:05:04.374Z,2.47
2022-08-09T16:10:06.238Z,1.93
2022-08-09T16:16:10.393Z,2.20
2022-08-09T16:20:30.538Z,2.35
2022-08-09T16:25:36.882Z,2.03
2022-08-09T16:30:44.384Z,2.00
2022-08-09T16:35:56.902Z,2.42
2022-08-09T16:40:59.171Z,2.50
2022-08-09T16:46:07.900Z,2.50
2022-08-09T16:51:14.069Z,2.08
2022-08-09T16:56:12.821Z,3.67
2022-08-09T17:01:12.508Z,2.13
2022-08-09T17:06:31.691Z,2.63
2022-08-09T17:11:37.710Z,2.92
2022-08-09T17:16:41.632Z,2.22
2022-08-09T17:21:41.189Z,3.40
2022-08-09T17:26:47.761Z,2.63
2022-08-09T17:31:53.123Z,3.20
2022-08-09T17:36:53.366Z,2.67
2022-08-09T17:41:51.998Z,3.20
2022-08-09T17:46:55.678Z,6.38
2022-08-09T17:51:55.997Z,4.68
2022-08-09T17:56:54.749Z,2.90
2022-08-09T18:02:08.025Z,2.60
2022-08-09T18:07:22.942Z,3.75
2022-08-09T18:12:21.943Z,3.33
2022-08-09T18:18:02.521Z,2.75
2022-08-09T18:22:59.839Z,3.10
2022-08-09T18:28:10.073Z,1.92
2022-08-09T18:33:23.244Z,3.08
2022-08-09T18:38:21.734Z,2.35
2022-08-09T18:43:21.166Z,2.58
2022-08-09T18:48:22.889Z,2.45
2022-08-09T18:53:56.473Z,3.20
2022-08-09T18:58:51.379Z,3.17
2022-08-09T19:04:01.458Z,2.75
2022-08-09T19:09:05.160Z,2.55
2022-08-09T19:14:06.234Z,2.78
2022-08-09T19:19:21.267Z,2.22
2022-08-09T19:24:32.452Z,2.35
2022-08-09T19:29:38.192Z,2.72
2022-08-09T19:34:57.369Z,1.65
2022-08-09T19:40:03.670Z,1.80
2022-08-09T19:45:03.966Z,2.13
2022-08-09T19:50:48.308Z,2.10
2022-08-09T19:55:30.596Z,2.05
2022-08-09T20:00:43.245Z,3.15
2022-08-09T20:05:46.274Z,3.88
2022-08-09T20:10:46.403Z,4.43
2022-08-09T20:16:36.491Z,3.75
2022-08-09T20:21:08.461Z,3.30
2022-08-09T20:26:07.088Z,2.55
2022-08-09T20:31:05.754Z,2.65
2022-08-09T20:36:09.274Z,3.35
2022-08-09T20:41:07.735Z,2.47
2022-08-09T20:46:33.389Z,3.58
2022-08-09T20:51:26.046Z,3.00
2022-08-09T20:56:26.198Z,2.95
2022-08-09T21:01:34.673Z,2.70
2022-08-09T21:06:44.217Z,3.55
2022-08-09T21:17:02.065Z,4.03
2022-08-09T21:22:36.090Z,3.35
2022-08-09T21:27:52.277Z,2.70
2022-08-09T21:32:56.027Z,3.15
2022-08-09T21:37:59.557Z,3.60
2022-08-09T21:42:58.705Z,3.55
2022-08-09T21:47:57.004Z,2.97
2022-08-09T21:52:56.676Z,4.22
2022-08-09T21:57:59.829Z,4.13
2022-08-09T22:07:59.325Z,4.00
2022-08-09T22:12:59.323Z,4.40
2022-08-09T22:17:57.592Z,4.43
2022-08-09T22:22:56.973Z,4.30
2022-08-09T22:27:58.532Z,4.60
2022-08-09T22:32:56.858Z,4.63
2022-08-09T22:38:06.708Z,4.55
2022-08-09T22:43:16.101Z,4.50
2022-08-09T22:48:35.446Z,3.35
2022-08-09T22:53:58.463Z,3.65
2022-08-09T22:58:53.119Z,4.00
2022-08-09T23:04:03.464Z,3.92
2022-08-09T23:09:03.264Z,2.95
2022-08-09T23:14:03.417Z,3.08
2022-08-09T23:19:02.213Z,2.72
2022-08-09T23:24:06.643Z,2.55
2022-08-09T23:29:07.126Z,2.83
2022-08-09T23:34:05.411Z,2.92
2022-08-09T23:39:06.234Z,2.45
2022-08-09T23:44:04.902Z,2.40
2022-08-09T23:49:04.664Z,3.03
2022-08-09T23:54:03.663Z,2.97
2022-08-09T23:59:02.047Z,2.60
